createdAt,value
2018-11-29T00:00:58.539Z,15.70
2018-11-29T00:01:58.578Z,15.70
2018-11-29T00:02:58.625Z,15.30
2018-11-29T00:03:58.673Z,16.10
2018-11-29T00:04:58.726Z,16.50
2018-11-29T00:05:58.782Z,17.60
2018-11-29T00:06:58.856Z,16.80
2018-11-29T00:07:58.850Z,16.80
2018-11-29T00:08:58.931Z,17.20
2018-11-29T00:09:58.976Z,18.30
2018-11-29T00:10:59.015Z,19.10
2018-11-29T00:11:59.030Z,17.70
2018-11-29T00:12:59.111Z,17.30
2018-11-29T00:13:59.151Z,18.50
2018-11-29T00:14:59.208Z,16.90
2018-11-29T00:15:59.245Z,16.50
2018-11-29T00:16:59.285Z,16.50
2018-11-29T00:17:59.344Z,18.40
2018-11-29T00:18:59.407Z,17.10
2018-11-29T00:19:59.425Z,17.10
2018-11-29T00:20:59.517Z,16.60
2018-11-29T00:21:59.501Z,16.30
2018-11-29T00:22:59.574Z,16.40
2018-11-29T00:23:59.646Z,15.70
2018-11-29T00:24:59.651Z,15.10
2018-11-29T00:25:59.691Z,15.40
2018-11-29T00:26:59.733Z,16.90
2018-11-29T00:27:59.782Z,13.70
2018-11-29T00:28:59.880Z,13.30
2018-11-29T00:29:59.896Z,14.40
2018-11-29T00:30:59.930Z,13.20
2018-11-29T00:31:59.989Z,12.80
2018-11-29T00:33:00.038Z,12.40
2018-11-29T00:34:00.090Z,12.20
2018-11-29T00:35:00.131Z,12.10
2018-11-29T00:36:00.173Z,12.00
2018-11-29T00:37:00.214Z,11.80
2018-11-29T00:38:00.269Z,11.30
2018-11-29T00:39:00.309Z,12.90
2018-11-29T00:40:00.406Z,10.20
2018-11-29T00:41:00.403Z,11.00
2018-11-29T00:42:00.449Z,11.30
2018-11-29T00:43:00.486Z,11.20
2018-11-29T00:44:00.536Z,11.10
2018-11-29T00:45:00.584Z,11.20
2018-11-29T00:46:00.622Z,11.30
2018-11-29T00:47:00.741Z,10.10
2018-11-29T00:48:00.724Z,10.10
2018-11-29T00:49:00.757Z,10.40
2018-11-29T00:50:00.836Z,9.40
2018-11-29T00:51:00.856Z,11.10
2018-11-29T00:52:00.902Z,10.20
2018-11-29T00:53:00.971Z,13.00
2018-11-29T00:54:01.017Z,9.90
2018-11-29T00:55:01.036Z,8.90
2018-11-29T00:56:01.082Z,8.40
2018-11-29T00:57:01.135Z,9.00
2018-11-29T00:58:01.172Z,8.60
2018-11-29T00:59:01.223Z,12.80
2018-11-29T01:00:01.283Z,12.20
2018-11-29T01:01:01.334Z,9.50
2018-11-29T01:02:01.357Z,8.90
2018-11-29T01:03:01.429Z,8.50
2018-11-29T01:04:01.473Z,8.30
2018-11-29T01:05:01.494Z,8.70
2018-11-29T01:06:01.563Z,8.10
2018-11-29T01:07:01.576Z,8.90
2018-11-29T01:08:01.685Z,8.80
2018-11-29T01:09:01.690Z,8.90
2018-11-29T01:10:01.738Z,8.70
2018-11-29T01:11:01.789Z,9.60
2018-11-29T01:12:01.846Z,9.00
2018-11-29T01:13:01.885Z,9.80
2018-11-29T01:14:01.944Z,9.90
2018-11-29T01:15:01.984Z,9.40
2018-11-29T01:16:02.074Z,10.80
2018-11-29T01:17:02.094Z,10.80
2018-11-29T01:18:02.145Z,9.90
2018-11-29T01:19:02.203Z,11.70
2018-11-29T01:20:02.196Z,9.90
2018-11-29T01:21:02.266Z,11.30
2018-11-29T01:22:02.281Z,11.40
2018-11-29T01:23:02.366Z,12.40
2018-11-29T01:24:02.386Z,11.00
2018-11-29T01:25:02.426Z,11.80
2018-11-29T01:26:02.492Z,11.60
2018-11-29T01:27:02.521Z,11.20
2018-11-29T01:28:02.576Z,10.40
2018-11-29T01:29:02.611Z,10.90
2018-11-29T01:30:02.675Z,9.90
2018-11-29T01:31:02.717Z,10.50
2018-11-29T01:32:02.754Z,11.40
2018-11-29T01:33:02.818Z,10.60
2018-11-29T01:34:02.861Z,10.90
2018-11-29T01:35:02.894Z,10.10
2018-11-29T01:36:02.965Z,9.90
2018-11-29T01:37:03.043Z,14.20
2018-11-29T01:38:03.050Z,12.10
2018-11-29T01:39:03.114Z,12.00
2018-11-29T01:40:03.132Z,9.80
2018-11-29T01:41:03.191Z,13.80
2018-11-29T01:42:03.256Z,9.30
2018-11-29T01:43:03.289Z,8.90
2018-11-29T01:44:03.328Z,8.90
2018-11-29T01:45:03.351Z,9.40
2018-11-29T01:46:03.418Z,15.40
2018-11-29T01:47:03.460Z,8.30
2018-11-29T01:48:03.490Z,7.90
2018-11-29T01:49:03.550Z,8.00
2018-11-29T01:50:03.609Z,13.70
2018-11-29T01:51:03.652Z,8.20
2018-11-29T01:52:03.704Z,7.50
2018-11-29T01:53:03.751Z,7.70
2018-11-29T01:54:03.784Z,7.30
2018-11-29T01:55:03.841Z,10.80
2018-11-29T01:56:03.862Z,7.70
2018-11-29T01:57:03.933Z,8.60
2018-11-29T01:58:03.971Z,6.90
2018-11-29T01:59:04.009Z,6.10
2018-11-29T02:00:04.033Z,6.80
2018-11-29T02:01:04.110Z,7.10
2018-11-29T02:02:04.159Z,6.10
2018-11-29T02:03:04.177Z,6.40
2018-11-29T02:04:04.252Z,6.00
2018-11-29T02:05:04.287Z,6.50
2018-11-29T02:06:04.330Z,7.20
2018-11-29T02:07:04.394Z,5.80
2018-11-29T02:08:04.446Z,5.90
2018-11-29T02:09:04.466Z,6.20
2018-11-29T02:10:04.569Z,5.80
2018-11-29T02:11:04.563Z,6.00
2018-11-29T02:12:04.620Z,6.40
2018-11-29T02:13:04.658Z,6.20
2018-11-29T02:14:04.707Z,7.30
2018-11-29T02:15:04.759Z,6.60
2018-11-29T02:16:04.777Z,6.50
2018-11-29T02:17:04.834Z,6.20
2018-11-29T02:18:04.862Z,8.40
2018-11-29T02:19:04.921Z,8.10
2018-11-29T02:20:04.970Z,7.80
2018-11-29T02:21:05.020Z,8.20
2018-11-29T02:22:05.076Z,9.80
2018-11-29T02:23:05.115Z,9.90
2018-11-29T02:24:05.170Z,8.40
2018-11-29T02:25:05.203Z,8.50
2018-11-29T02:26:05.261Z,9.30
2018-11-29T02:27:05.304Z,9.70
2018-11-29T02:28:05.356Z,9.40
2018-11-29T02:29:05.393Z,9.20
2018-11-29T02:30:05.447Z,9.00
2018-11-29T02:31:05.527Z,10.00
2018-11-29T02:32:05.555Z,10.10
2018-11-29T02:33:05.596Z,9.40
2018-11-29T02:34:05.617Z,10.30
2018-11-29T02:35:05.701Z,10.00
2018-11-29T02:36:05.760Z,11.20
2018-11-29T02:37:05.761Z,11.10
2018-11-29T02:38:05.823Z,10.80
2018-11-29T02:39:05.869Z,12.20
2018-11-29T02:40:05.954Z,14.30
2018-11-29T02:41:05.933Z,18.40
2018-11-29T02:42:06.004Z,20.40
2018-11-29T02:43:06.047Z,19.30
2018-11-29T02:44:06.134Z,15.30
2018-11-29T02:45:06.131Z,14.90
2018-11-29T02:46:06.189Z,14.10
2018-11-29T02:47:06.221Z,15.50
2018-11-29T02:48:06.276Z,14.30
2018-11-29T02:49:06.294Z,14.70
2018-11-29T02:50:06.368Z,14.70
2018-11-29T02:51:06.412Z,15.90
2018-11-29T02:52:06.450Z,15.40
2018-11-29T02:53:06.490Z,15.50
2018-11-29T02:54:06.541Z,14.90
2018-11-29T02:55:06.568Z,14.50
2018-11-29T02:56:06.638Z,14.50
2018-11-29T02:57:06.693Z,14.40
2018-11-29T02:58:06.713Z,13.60
2018-11-29T02:59:06.776Z,14.30
2018-11-29T03:00:06.836Z,14.30
2018-11-29T03:01:06.854Z,14.10
2018-11-29T03:02:06.911Z,14.20
2018-11-29T03:03:07.000Z,15.40
2018-11-29T03:04:07.004Z,14.00
2018-11-29T03:05:07.061Z,13.90
2018-11-29T03:06:07.084Z,14.10
2018-11-29T03:07:07.132Z,13.90
2018-11-29T03:08:07.184Z,14.30
2018-11-29T03:09:07.245Z,13.50
2018-11-29T03:10:07.289Z,13.80
2018-11-29T03:11:07.312Z,13.50
2018-11-29T03:12:07.388Z,13.50
2018-11-29T03:13:07.427Z,13.70
2018-11-29T03:14:07.481Z,13.90
2018-11-29T03:15:07.494Z,13.70
2018-11-29T03:16:07.574Z,13.20
2018-11-29T03:17:07.603Z,13.80
2018-11-29T03:18:07.665Z,14.10
2018-11-29T03:19:07.699Z,13.80
2018-11-29T03:20:07.743Z,13.30
2018-11-29T03:21:07.798Z,13.10
2018-11-29T03:22:07.821Z,13.40
2018-11-29T03:23:07.877Z,12.60
2018-11-29T03:24:07.924Z,13.30
2018-11-29T03:25:07.979Z,13.20
2018-11-29T03:26:08.289Z,13.20
2018-11-29T03:27:08.130Z,12.60
2018-11-29T03:28:08.172Z,12.40
2018-11-29T03:29:08.156Z,12.10
2018-11-29T03:30:08.218Z,12.00
2018-11-29T03:31:08.263Z,11.30
2018-11-29T03:32:08.308Z,11.40
2018-11-29T03:33:08.352Z,11.50
2018-11-29T03:34:08.375Z,12.00
2018-11-29T03:35:08.452Z,11.80
2018-11-29T03:36:08.534Z,12.20
2018-11-29T03:37:08.565Z,12.20
2018-11-29T03:38:08.589Z,11.60
2018-11-29T03:39:08.669Z,11.70
2018-11-29T03:40:08.659Z,11.50
2018-11-29T03:41:08.769Z,11.70
2018-11-29T03:42:08.780Z,12.00
2018-11-29T03:43:08.806Z,11.60
2018-11-29T03:44:08.869Z,10.60
2018-11-29T03:45:08.957Z,10.90
2018-11-29T03:46:08.944Z,10.40
2018-11-29T03:47:09.007Z,11.00
2018-11-29T03:48:09.058Z,10.80
2018-11-29T03:49:09.069Z,11.50
2018-11-29T03:50:09.155Z,10.90
2018-11-29T03:51:09.182Z,10.70
2018-11-29T03:52:09.274Z,11.10
2018-11-29T03:53:09.290Z,10.80
2018-11-29T03:54:09.311Z,10.70
2018-11-29T03:55:09.380Z,11.30
2018-11-29T03:56:09.396Z,10.60
2018-11-29T03:57:09.464Z,11.00
2018-11-29T03:58:09.504Z,10.50
2018-11-29T03:59:09.561Z,10.70
2018-11-29T04:00:09.605Z,10.80
2018-11-29T04:01:09.652Z,10.30
2018-11-29T04:02:09.985Z,10.60
2018-11-29T04:03:09.750Z,9.80
2018-11-29T04:04:09.796Z,10.80
2018-11-29T04:05:09.849Z,10.10
2018-11-29T04:06:09.932Z,10.10
2018-11-29T04:07:09.932Z,10.90
2018-11-29T04:08:09.980Z,10.90
2018-11-29T04:09:10.018Z,10.90
2018-11-29T04:10:10.078Z,10.80
2018-11-29T04:11:10.087Z,10.80
2018-11-29T04:12:10.148Z,11.10
2018-11-29T04:13:10.219Z,10.80
2018-11-29T04:14:10.239Z,9.90
2018-11-29T04:15:10.342Z,10.20
2018-11-29T04:16:10.351Z,10.70
2018-11-29T04:17:10.455Z,10.70
2018-11-29T04:18:10.429Z,11.00
2018-11-29T04:19:10.493Z,11.30
2018-11-29T04:20:10.531Z,12.10
2018-11-29T04:21:10.613Z,13.50
2018-11-29T04:22:10.643Z,12.30
2018-11-29T04:23:10.692Z,13.20
2018-11-29T04:24:10.723Z,13.20
2018-11-29T04:25:10.809Z,12.60
2018-11-29T04:26:10.785Z,12.80
2018-11-29T04:27:10.847Z,12.90
2018-11-29T04:28:10.911Z,12.60
2018-11-29T04:29:10.934Z,12.70
2018-11-29T04:30:10.968Z,13.00
2018-11-29T04:31:11.032Z,13.40
2018-11-29T04:32:11.073Z,13.90
2018-11-29T04:33:11.107Z,15.70
2018-11-29T04:34:11.158Z,14.00
2018-11-29T04:35:11.275Z,14.00
2018-11-29T04:36:11.282Z,14.30
2018-11-29T04:37:11.317Z,14.30
2018-11-29T04:38:11.372Z,14.50
2018-11-29T04:39:11.391Z,14.70
2018-11-29T04:40:11.442Z,15.60
2018-11-29T04:41:11.477Z,14.80
2018-11-29T04:42:11.543Z,14.40
2018-11-29T04:43:11.601Z,15.10
2018-11-29T04:44:11.670Z,14.80
2018-11-29T04:45:11.701Z,14.70
2018-11-29T04:46:11.718Z,14.50
2018-11-29T04:47:11.761Z,14.10
2018-11-29T04:48:12.111Z,14.60
2018-11-29T04:49:11.863Z,14.80
2018-11-29T04:50:11.919Z,16.00
2018-11-29T04:51:11.962Z,15.90
2018-11-29T04:52:12.018Z,15.40
2018-11-29T04:53:12.041Z,15.20
2018-11-29T04:54:12.081Z,16.80
2018-11-29T04:55:12.142Z,17.60
2018-11-29T04:56:12.235Z,18.40
2018-11-29T04:57:12.262Z,17.90
2018-11-29T04:58:12.269Z,17.30
2018-11-29T04:59:12.375Z,17.30
2018-11-29T05:00:12.361Z,16.20
2018-11-29T05:01:12.403Z,17.00
2018-11-29T05:02:12.434Z,16.90
2018-11-29T05:03:12.485Z,15.80
2018-11-29T05:04:12.575Z,16.70
2018-11-29T05:05:12.586Z,16.50
2018-11-29T05:06:12.634Z,16.70
2018-11-29T05:07:12.684Z,16.70
2018-11-29T05:08:12.741Z,16.10
2018-11-29T05:09:12.796Z,16.80
2018-11-29T05:10:12.841Z,16.50
2018-11-29T05:11:12.893Z,16.70
2018-11-29T05:12:12.948Z,16.40
2018-11-29T05:13:12.973Z,14.80
2018-11-29T05:14:13.005Z,15.00
2018-11-29T05:15:13.060Z,15.60
2018-11-29T05:16:13.103Z,15.20
2018-11-29T05:17:13.141Z,14.50
2018-11-29T05:18:13.231Z,14.10
2018-11-29T05:19:13.251Z,16.40
2018-11-29T05:20:13.282Z,16.10
2018-11-29T05:21:13.329Z,18.70
2018-11-29T05:22:13.377Z,19.00
2018-11-29T05:23:13.476Z,17.60
2018-11-29T05:24:13.474Z,19.60
2018-11-29T05:25:13.524Z,21.20
2018-11-29T05:26:13.577Z,20.60
2018-11-29T05:27:13.619Z,19.10
2018-11-29T05:28:13.640Z,19.50
2018-11-29T05:29:13.716Z,18.60
2018-11-29T05:30:13.757Z,18.90
2018-11-29T05:31:13.775Z,19.10
2018-11-29T05:32:13.847Z,18.80
2018-11-29T05:33:13.888Z,18.90
2018-11-29T05:34:13.933Z,17.90
2018-11-29T05:35:13.990Z,17.00
2018-11-29T05:36:14.072Z,18.20
2018-11-29T05:37:14.075Z,16.70
2018-11-29T05:38:14.158Z,17.90
2018-11-29T05:39:14.183Z,16.90
2018-11-29T05:40:14.198Z,17.70
2018-11-29T05:41:14.257Z,16.40
2018-11-29T05:42:14.284Z,16.80
2018-11-29T05:43:14.345Z,17.30
2018-11-29T05:44:14.377Z,17.20
2018-11-29T05:45:14.430Z,16.20
2018-11-29T05:46:14.470Z,17.10
2018-11-29T05:47:14.510Z,16.40
2018-11-29T05:48:14.557Z,16.30
2018-11-29T05:49:14.632Z,15.90
2018-11-29T05:50:14.667Z,15.70
2018-11-29T05:51:14.704Z,16.50
2018-11-29T05:52:14.753Z,16.00
2018-11-29T05:53:14.808Z,16.40
2018-11-29T05:54:14.851Z,16.00
2018-11-29T05:55:14.878Z,15.70
2018-11-29T05:56:14.938Z,15.40
2018-11-29T05:57:15.031Z,15.60
2018-11-29T05:58:15.025Z,15.30
2018-11-29T05:59:15.080Z,15.10
2018-11-29T06:00:15.096Z,14.90
2018-11-29T06:01:15.207Z,15.00
2018-11-29T06:02:15.192Z,15.50
2018-11-29T06:03:15.263Z,14.10
2018-11-29T06:04:15.296Z,14.40
2018-11-29T06:05:15.337Z,14.60
2018-11-29T06:06:15.378Z,16.50
2018-11-29T06:07:15.436Z,14.50
2018-11-29T06:08:15.481Z,14.30
2018-11-29T06:09:15.533Z,12.90
2018-11-29T06:10:15.567Z,13.60
2018-11-29T06:11:15.597Z,14.60
2018-11-29T06:12:15.652Z,13.60
2018-11-29T06:13:15.717Z,12.80
2018-11-29T06:14:15.770Z,12.80
2018-11-29T06:15:15.808Z,13.40
2018-11-29T06:16:15.891Z,13.30
2018-11-29T06:17:15.876Z,13.90
2018-11-29T06:18:15.928Z,12.50
2018-11-29T06:19:15.974Z,13.40
2018-11-29T06:20:16.036Z,14.60
2018-11-29T06:21:16.109Z,13.90
2018-11-29T06:22:16.160Z,15.90
2018-11-29T06:23:16.170Z,15.50
2018-11-29T06:24:16.187Z,16.20
2018-11-29T06:25:16.255Z,16.60
2018-11-29T06:26:16.277Z,18.20
2018-11-29T06:27:16.355Z,17.50
2018-11-29T06:28:16.374Z,17.40
2018-11-29T06:29:16.476Z,17.20
2018-11-29T06:30:16.490Z,17.20
2018-11-29T06:31:16.551Z,18.40
2018-11-29T06:32:16.559Z,16.80
2018-11-29T06:33:16.614Z,21.30
2018-11-29T06:34:16.669Z,19.40
2018-11-29T06:35:16.690Z,16.80
2018-11-29T06:36:16.743Z,16.80
2018-11-29T06:37:17.062Z,23.20
2018-11-29T06:38:16.857Z,17.50
2018-11-29T06:39:16.892Z,18.10
2018-11-29T06:40:16.943Z,20.20
2018-11-29T06:41:17.012Z,21.00
2018-11-29T06:42:17.069Z,20.00
2018-11-29T06:43:17.081Z,19.60
2018-11-29T06:44:17.120Z,20.20
2018-11-29T06:45:17.190Z,20.70
2018-11-29T06:46:17.271Z,19.90
2018-11-29T06:47:17.266Z,19.30
2018-11-29T06:48:17.459Z,20.60
2018-11-29T06:49:17.323Z,18.80
2018-11-29T06:50:17.395Z,19.20
2018-11-29T06:51:17.445Z,19.40
2018-11-29T06:52:17.482Z,21.40
2018-11-29T06:53:17.517Z,19.80
2018-11-29T06:54:17.579Z,22.60
2018-11-29T06:55:17.624Z,24.60
2018-11-29T06:56:17.665Z,26.60
2018-11-29T06:57:17.712Z,21.20
2018-11-29T06:58:17.778Z,20.10
2018-11-29T06:59:17.813Z,19.40
2018-11-29T07:00:17.840Z,19.80
2018-11-29T07:01:17.933Z,19.70
2018-11-29T07:02:17.940Z,19.90
2018-11-29T07:03:17.986Z,20.00
2018-11-29T07:04:18.017Z,19.50
2018-11-29T07:05:18.065Z,18.70
2018-11-29T07:06:18.134Z,19.90
2018-11-29T07:07:18.164Z,19.30
2018-11-29T07:08:18.212Z,20.30
2018-11-29T07:09:18.243Z,19.80
2018-11-29T07:10:18.302Z,20.10
2018-11-29T07:11:18.338Z,19.30
2018-11-29T07:12:18.433Z,19.20
2018-11-29T07:13:18.426Z,21.20
2018-11-29T07:14:18.476Z,19.00
2018-11-29T07:15:18.539Z,18.70
2018-11-29T07:16:18.573Z,18.10
2018-11-29T07:17:18.606Z,17.20
2018-11-29T07:18:18.670Z,17.40
2018-11-29T07:19:18.711Z,17.20
2018-11-29T07:20:18.751Z,18.30
2018-11-29T07:21:18.799Z,16.60
2018-11-29T07:22:18.856Z,17.80
2018-11-29T07:23:18.897Z,20.70
2018-11-29T07:24:18.933Z,17.70
2018-11-29T07:25:18.991Z,16.40
2018-11-29T07:26:19.065Z,17.50
2018-11-29T07:27:19.078Z,16.80
2018-11-29T07:28:19.127Z,16.80
2018-11-29T07:29:19.165Z,16.70
2018-11-29T07:30:19.202Z,17.10
2018-11-29T07:31:19.230Z,16.20
2018-11-29T07:32:19.538Z,16.20
2018-11-29T07:33:19.336Z,16.80
2018-11-29T07:34:19.395Z,15.50
2018-11-29T07:35:19.437Z,17.10
2018-11-29T07:36:19.464Z,16.10
2018-11-29T07:37:19.515Z,21.40
2018-11-29T07:38:19.560Z,16.20
2018-11-29T07:39:19.652Z,17.60
2018-11-29T07:40:19.659Z,19.40
2018-11-29T07:41:19.701Z,16.20
2018-11-29T07:42:19.756Z,15.40
2018-11-29T07:43:19.790Z,17.10
2018-11-29T07:44:19.828Z,15.90
2018-11-29T07:45:19.877Z,15.80
2018-11-29T07:46:19.967Z,15.40
2018-11-29T07:47:19.979Z,17.80
2018-11-29T07:48:20.023Z,17.50
2018-11-29T07:49:20.080Z,16.70
2018-11-29T07:50:20.108Z,16.70
2018-11-29T07:51:20.158Z,16.40
2018-11-29T07:52:20.211Z,18.10
2018-11-29T07:53:20.261Z,19.50
2018-11-29T07:54:20.296Z,17.80
2018-11-29T07:55:20.395Z,17.30
2018-11-29T07:56:20.393Z,18.40
2018-11-29T07:57:20.420Z,17.20
2018-11-29T07:58:20.485Z,19.40
2018-11-29T07:59:20.522Z,17.70
2018-11-29T08:00:20.574Z,18.10
2018-11-29T08:01:20.598Z,22.00
2018-11-29T08:02:20.648Z,20.60
2018-11-29T08:03:20.709Z,19.80
2018-11-29T08:04:20.764Z,18.60
2018-11-29T08:05:20.798Z,20.40
2018-11-29T08:06:20.857Z,19.60
2018-11-29T08:07:20.896Z,19.40
2018-11-29T08:08:20.940Z,20.20
2018-11-29T08:09:20.980Z,19.70
2018-11-29T08:10:21.031Z,19.20
2018-11-29T08:11:21.113Z,19.10
2018-11-29T08:12:21.115Z,19.50
2018-11-29T08:13:21.134Z,20.60
2018-11-29T08:14:21.206Z,20.10
2018-11-29T08:15:21.234Z,20.40
2018-11-29T08:16:21.335Z,22.00
2018-11-29T08:17:21.340Z,18.10
2018-11-29T08:18:21.408Z,17.20
2018-11-29T08:19:21.473Z,16.90
2018-11-29T08:20:21.486Z,19.40
2018-11-29T08:21:21.519Z,18.30
2018-11-29T08:22:21.583Z,15.40
2018-11-29T08:23:21.609Z,16.80
2018-11-29T08:24:21.635Z,18.30
2018-11-29T08:25:21.695Z,15.70
2018-11-29T08:26:21.741Z,16.80
2018-11-29T08:27:21.787Z,15.10
2018-11-29T08:28:21.831Z,16.20
2018-11-29T08:29:21.884Z,17.60
2018-11-29T08:30:21.932Z,15.80
2018-11-29T08:31:21.972Z,16.20
2018-11-29T08:32:22.025Z,15.80
2018-11-29T08:33:22.087Z,14.70
2018-11-29T08:34:22.145Z,18.00
2018-11-29T08:35:22.133Z,14.80
2018-11-29T08:36:22.224Z,20.60
2018-11-29T08:37:22.245Z,16.30
2018-11-29T08:38:22.272Z,17.40
2018-11-29T08:39:22.324Z,21.70
2018-11-29T08:40:22.377Z,18.10
2018-11-29T08:41:22.431Z,14.50
2018-11-29T08:42:22.450Z,14.70
2018-11-29T08:43:22.565Z,14.00
2018-11-29T08:44:22.539Z,14.10
2018-11-29T08:45:22.602Z,13.90
2018-11-29T08:46:22.680Z,14.40
2018-11-29T08:47:22.679Z,14.60
2018-11-29T08:48:22.747Z,14.50
2018-11-29T08:49:22.793Z,14.80
2018-11-29T08:50:23.155Z,15.00
2018-11-29T08:51:22.880Z,19.50
2018-11-29T08:52:22.962Z,17.20
2018-11-29T08:53:22.972Z,16.00
2018-11-29T08:54:23.044Z,15.20
2018-11-29T08:55:23.037Z,19.30
2018-11-29T08:56:23.101Z,17.20
2018-11-29T08:57:23.190Z,15.50
2018-11-29T08:58:23.199Z,14.30
2018-11-29T08:59:23.251Z,13.90
2018-11-29T09:00:23.279Z,14.10
2018-11-29T09:01:23.337Z,15.00
2018-11-29T09:02:23.390Z,14.20
2018-11-29T09:03:23.478Z,14.60
2018-11-29T09:04:23.466Z,13.40
2018-11-29T09:05:23.556Z,14.10
2018-11-29T09:06:23.558Z,17.60
2018-11-29T09:07:23.612Z,16.20
2018-11-29T09:08:23.634Z,16.20
2018-11-29T09:09:23.754Z,15.30
2018-11-29T09:10:23.743Z,15.10
2018-11-29T09:11:23.788Z,14.10
2018-11-29T09:12:23.827Z,13.30
2018-11-29T09:13:23.872Z,15.30
2018-11-29T09:14:23.985Z,16.50
2018-11-29T09:15:23.957Z,14.80
2018-11-29T09:16:24.022Z,14.60
2018-11-29T09:17:24.044Z,17.40
2018-11-29T09:18:24.120Z,16.30
2018-11-29T09:19:24.167Z,16.70
2018-11-29T09:20:24.208Z,16.80
2018-11-29T09:21:24.236Z,14.20
2018-11-29T09:22:24.294Z,14.10
2018-11-29T09:23:24.347Z,16.40
2018-11-29T09:24:24.428Z,15.30
2018-11-29T09:25:24.452Z,26.00
2018-11-29T09:26:24.479Z,18.30
2018-11-29T09:27:24.542Z,15.20
2018-11-29T09:28:24.584Z,15.30
2018-11-29T09:29:24.629Z,16.80
2018-11-29T09:30:24.662Z,17.70
2018-11-29T09:31:24.723Z,19.10
2018-11-29T09:32:24.788Z,17.80
2018-11-29T09:33:24.799Z,15.40
2018-11-29T09:34:24.850Z,16.60
2018-11-29T09:35:24.911Z,15.60
2018-11-29T09:36:24.960Z,17.20
2018-11-29T09:37:25.005Z,14.70
2018-11-29T09:38:25.026Z,14.60
2018-11-29T09:39:25.102Z,14.30
2018-11-29T09:40:25.148Z,14.20
2018-11-29T09:41:25.208Z,14.40
2018-11-29T09:42:25.235Z,16.30
2018-11-29T09:43:25.347Z,17.40
2018-11-29T09:44:25.372Z,14.30
2018-11-29T09:45:25.354Z,16.60
2018-11-29T09:46:25.414Z,14.60
2018-11-29T09:47:25.482Z,14.80
2018-11-29T09:48:25.489Z,14.30
2018-11-29T09:49:25.582Z,14.00
2018-11-29T09:50:25.624Z,14.10
2018-11-29T09:51:25.679Z,18.60
2018-11-29T09:52:25.721Z,16.40
2018-11-29T09:53:25.766Z,16.20
2018-11-29T09:54:25.817Z,15.40
2018-11-29T09:55:25.880Z,13.40
2018-11-29T09:56:25.903Z,14.10
2018-11-29T09:57:25.945Z,14.70
2018-11-29T09:58:26.037Z,14.00
2018-11-29T09:59:26.050Z,13.80
2018-11-29T10:00:27.971Z,18.80
2018-11-29T10:01:26.201Z,13.50
2018-11-29T10:02:26.184Z,12.70
2018-11-29T10:03:26.250Z,15.30
2018-11-29T10:04:26.319Z,13.50
2018-11-29T10:05:26.352Z,12.70
2018-11-29T10:06:26.408Z,12.30
2018-11-29T10:07:26.463Z,11.90
2018-11-29T10:08:26.528Z,12.10
2018-11-29T10:09:26.563Z,11.00
2018-11-29T10:10:26.624Z,11.70
2018-11-29T10:11:26.669Z,12.30
2018-11-29T10:12:26.768Z,12.10
2018-11-29T10:13:26.784Z,11.50
2018-11-29T10:14:26.831Z,11.10
2018-11-29T10:15:26.888Z,12.40
2018-11-29T10:16:26.947Z,11.80
2018-11-29T10:17:26.992Z,11.70
2018-11-29T10:18:27.044Z,11.80
2018-11-29T10:19:27.087Z,13.10
2018-11-29T10:20:27.146Z,12.30
2018-11-29T10:21:27.181Z,11.50
2018-11-29T10:22:27.280Z,12.00
2018-11-29T10:23:27.291Z,10.80
2018-11-29T10:24:27.367Z,10.70
2018-11-29T10:25:27.418Z,10.90
2018-11-29T10:26:27.479Z,10.00
2018-11-29T10:27:27.539Z,10.90
2018-11-29T10:28:27.587Z,13.00
2018-11-29T10:29:27.636Z,11.90
2018-11-29T10:30:27.690Z,10.30
2018-11-29T10:31:27.744Z,9.60
2018-11-29T10:32:27.828Z,10.40
2018-11-29T10:33:27.864Z,11.00
2018-11-29T10:34:27.922Z,11.40
2018-11-29T10:35:27.988Z,11.20
2018-11-29T10:36:28.011Z,12.80
2018-11-29T10:37:28.086Z,10.90
2018-11-29T10:38:28.185Z,12.60
2018-11-29T10:39:28.182Z,12.40
2018-11-29T10:40:28.267Z,12.30
2018-11-29T10:41:28.306Z,11.80
2018-11-29T10:42:28.362Z,11.00
2018-11-29T10:43:28.416Z,11.30
2018-11-29T10:44:28.479Z,11.20
2018-11-29T10:45:28.512Z,11.20
2018-11-29T10:46:28.569Z,11.10
2018-11-29T10:47:28.625Z,11.10
2018-11-29T10:48:28.673Z,11.20
2018-11-29T10:49:28.735Z,11.10
2018-11-29T10:50:28.773Z,10.90
2018-11-29T10:51:28.847Z,10.50
2018-11-29T10:52:28.896Z,9.80
2018-11-29T10:53:28.944Z,9.70
2018-11-29T10:54:28.995Z,9.70
2018-11-29T10:55:29.050Z,10.00
2018-11-29T10:56:29.112Z,10.00
2018-11-29T10:57:29.147Z,10.20
2018-11-29T10:58:29.281Z,9.40
2018-11-29T10:59:29.255Z,9.70
2018-11-29T11:00:29.320Z,9.20
2018-11-29T11:01:29.384Z,9.10
2018-11-29T11:02:29.440Z,8.80
2018-11-29T11:03:29.487Z,8.60
2018-11-29T11:04:29.549Z,8.20
2018-11-29T11:05:29.611Z,8.50
2018-11-29T11:06:29.670Z,8.10
2018-11-29T11:07:29.755Z,8.30
2018-11-29T11:08:29.771Z,7.90
2018-11-29T11:09:29.826Z,7.60
2018-11-29T11:10:29.880Z,7.80
2018-11-29T11:11:29.972Z,7.80
2018-11-29T11:12:29.985Z,7.70
2018-11-29T11:13:30.082Z,8.10
2018-11-29T11:14:30.106Z,8.30
2018-11-29T11:15:30.234Z,7.60
2018-11-29T11:16:30.218Z,7.70
2018-11-29T11:17:30.316Z,8.20
2018-11-29T11:18:30.343Z,6.90
2018-11-29T11:19:30.388Z,7.50
2018-11-29T11:20:30.434Z,6.60
2018-11-29T11:21:30.556Z,6.40
2018-11-29T11:22:30.576Z,6.80
2018-11-29T11:23:30.616Z,6.40
2018-11-29T11:24:30.676Z,6.70
2018-11-29T11:25:30.743Z,6.50
2018-11-29T11:26:30.795Z,6.30
2018-11-29T11:27:30.851Z,6.60
2018-11-29T11:28:30.968Z,6.70
2018-11-29T11:29:31.027Z,6.30
2018-11-29T11:30:31.017Z,6.40
2018-11-29T11:31:31.336Z,5.70
2018-11-29T11:32:31.143Z,5.90
2018-11-29T11:33:31.217Z,6.60
2018-11-29T11:34:31.246Z,6.70
2018-11-29T11:35:31.330Z,6.10
2018-11-29T11:36:31.420Z,6.30
2018-11-29T11:37:31.428Z,6.00
2018-11-29T11:38:31.552Z,5.60
2018-11-29T11:39:31.564Z,6.20
2018-11-29T11:40:31.608Z,6.20
2018-11-29T11:41:31.676Z,6.40
2018-11-29T11:42:31.743Z,6.00
2018-11-29T11:43:31.802Z,5.50
2018-11-29T11:44:31.865Z,5.80
2018-11-29T11:45:31.914Z,5.10
2018-11-29T11:46:31.964Z,5.30
2018-11-29T11:47:32.028Z,6.30
2018-11-29T11:48:32.108Z,5.40
2018-11-29T11:49:32.170Z,5.30
2018-11-29T11:50:32.207Z,5.40
2018-11-29T11:51:32.290Z,5.60
2018-11-29T11:52:33.555Z,5.50
2018-11-29T11:53:32.378Z,5.80
2018-11-29T11:54:32.460Z,5.70
2018-11-29T11:55:32.527Z,5.20
2018-11-29T11:56:32.573Z,5.30
2018-11-29T11:57:32.626Z,5.30
2018-11-29T11:58:32.695Z,5.10
2018-11-29T11:59:32.770Z,5.40
2018-11-29T12:00:32.824Z,6.10
2018-11-29T12:01:32.873Z,5.90
2018-11-29T12:02:32.916Z,4.80
2018-11-29T12:03:33.010Z,5.00
2018-11-29T12:04:33.069Z,5.20
2018-11-29T12:05:33.128Z,5.20
2018-11-29T12:06:33.187Z,4.80
2018-11-29T12:07:33.241Z,4.90
2018-11-29T12:08:33.318Z,4.90
2018-11-29T12:09:33.367Z,5.10
2018-11-29T12:10:33.431Z,4.90
2018-11-29T12:11:33.481Z,4.80
2018-11-29T12:12:33.554Z,4.30
2018-11-29T12:13:33.625Z,4.00
2018-11-29T12:14:33.673Z,4.00
2018-11-29T12:15:33.715Z,4.30
2018-11-29T12:16:33.798Z,4.40
2018-11-29T12:17:33.871Z,4.30
2018-11-29T12:18:33.938Z,4.00
2018-11-29T12:19:33.989Z,4.00
2018-11-29T12:20:34.062Z,4.10
2018-11-29T12:21:34.093Z,3.90
2018-11-29T12:22:34.154Z,3.20
2018-11-29T12:23:34.210Z,3.50
2018-11-29T12:24:34.294Z,3.40
2018-11-29T12:25:34.357Z,3.20
2018-11-29T12:26:34.433Z,3.20
2018-11-29T12:27:34.500Z,3.30
2018-11-29T12:28:34.590Z,3.30
2018-11-29T12:29:34.637Z,3.10
2018-11-29T12:30:34.668Z,3.00
2018-11-29T12:31:34.739Z,3.10
2018-11-29T12:32:34.781Z,3.20
2018-11-29T12:33:34.834Z,3.10
2018-11-29T12:34:34.899Z,3.00
2018-11-29T12:35:34.971Z,3.30
2018-11-29T12:36:35.035Z,3.10
2018-11-29T12:37:35.103Z,3.10
2018-11-29T12:38:35.144Z,3.20
2018-11-29T12:39:35.210Z,3.10
2018-11-29T12:40:35.268Z,2.90
2018-11-29T12:41:35.322Z,2.90
2018-11-29T12:42:35.391Z,3.00
2018-11-29T12:43:35.443Z,2.80
2018-11-29T12:44:35.516Z,3.10
2018-11-29T12:45:35.600Z,3.10
2018-11-29T12:46:35.648Z,3.20
2018-11-29T12:47:35.733Z,2.90
2018-11-29T12:48:35.819Z,3.20
2018-11-29T12:49:35.887Z,2.80
2018-11-29T12:50:35.890Z,2.90
2018-11-29T12:51:35.979Z,2.90
2018-11-29T12:52:36.032Z,3.20
2018-11-29T12:53:36.072Z,3.20
2018-11-29T12:54:36.172Z,3.20
2018-11-29T12:55:36.213Z,3.40
2018-11-29T12:56:36.278Z,3.20
2018-11-29T12:57:36.349Z,3.20
2018-11-29T12:58:36.440Z,3.00
2018-11-29T12:59:36.449Z,2.90
2018-11-29T13:00:36.529Z,3.10